sensor_id;sensor_type;location;lat;lon;timestamp;P1;durP1;ratioP1;P2;durP2;ratioP2
79710;SDS011;69465;51.630;6.570;2023-06-10T00:01:02;10.57;;;8.53;;
79710;SDS011;69465;51.630;6.570;2023-06-10T00:03:29;9.80;;;9.00;;
79710;SDS011;69465;51.630;6.570;2023-06-10T00:05:56;9.77;;;8.80;;
79710;SDS011;69465;51.630;6.570;2023-06-10T00:08:22;10.67;;;8.93;;
79710;SDS011;69465;51.630;6.570;2023-06-10T00:10:49;11.27;;;8.80;;
79710;SDS011;69465;51.630;6.570;2023-06-10T00:13:16;11.10;;;8.90;;
79710;SDS011;69465;51.630;6.570;2023-06-10T00:15:43;9.93;;;8.93;;
79710;SDS011;69465;51.630;6.570;2023-06-10T00:18:09;10.10;;;8.83;;
79710;SDS011;69465;51.630;6.570;2023-06-10T00:20:36;11.83;;;9.37;;
79710;SDS011;69465;51.630;6.570;2023-06-10T00:23:03;10.27;;;9.13;;
79710;SDS011;69465;51.630;6.570;2023-06-10T00:25:29;11.53;;;9.43;;
79710;SDS011;69465;51.630;6.570;2023-06-10T00:27:56;10.03;;;9.07;;
79710;SDS011;69465;51.630;6.570;2023-06-10T00:30:23;10.77;;;9.67;;
79710;SDS011;69465;51.630;6.570;2023-06-10T00:32:50;10.80;;;9.70;;
79710;SDS011;69465;51.630;6.570;2023-06-10T00:35:16;11.60;;;9.80;;
79710;SDS011;69465;51.630;6.570;2023-06-10T00:37:43;9.67;;;8.83;;
79710;SDS011;69465;51.630;6.570;2023-06-10T00:40:10;10.03;;;9.03;;
79710;SDS011;69465;51.630;6.570;2023-06-10T00:42:37;10.93;;;9.87;;
79710;SDS011;69465;51.630;6.570;2023-06-10T00:45:04;10.63;;;9.53;;
79710;SDS011;69465;51.630;6.570;2023-06-10T00:47:32;11.13;;;10.00;;
79710;SDS011;69465;51.630;6.570;2023-06-10T00:49:59;10.20;;;9.20;;
79710;SDS011;69465;51.630;6.570;2023-06-10T00:52:27;10.63;;;9.63;;
79710;SDS011;69465;51.630;6.570;2023-06-10T00:54:55;11.33;;;10.03;;
79710;SDS011;69465;51.630;6.570;2023-06-10T00:57:21;12.13;;;9.80;;
79710;SDS011;69465;51.630;6.570;2023-06-10T00:59:48;10.77;;;9.77;;
79710;SDS011;69465;51.630;6.570;2023-06-10T01:02:15;9.97;;;9.03;;
79710;SDS011;69465;51.630;6.570;2023-06-10T01:04:42;10.90;;;9.60;;
79710;SDS011;69465;51.630;6.570;2023-06-10T01:07:13;10.67;;;9.57;;
79710;SDS011;69465;51.630;6.570;2023-06-10T01:10:20;13.33;;;10.20;;
79710;SDS011;69465;51.630;6.570;2023-06-10T01:12:58;12.97;;;9.90;;
79710;SDS011;69465;51.630;6.570;2023-06-10T01:15:26;13.20;;;10.43;;
79710;SDS011;69465;51.630;6.570;2023-06-10T01:18:00;11.53;;;10.00;;
79710;SDS011;69465;51.630;6.570;2023-06-10T01:20:28;11.67;;;9.63;;
79710;SDS011;69465;51.630;6.570;2023-06-10T01:22:57;10.20;;;9.03;;
79710;SDS011;69465;51.630;6.570;2023-06-10T01:25:24;12.60;;;9.90;;
79710;SDS011;69465;51.630;6.570;2023-06-10T01:27:54;11.60;;;9.70;;
79710;SDS011;69465;51.630;6.570;2023-06-10T01:30:29;12.07;;;10.13;;
79710;SDS011;69465;51.630;6.570;2023-06-10T01:33:02;16.27;;;9.97;;
79710;SDS011;69465;51.630;6.570;2023-06-10T01:35:33;11.93;;;10.60;;
79710;SDS011;69465;51.630;6.570;2023-06-10T01:38:04;13.10;;;10.73;;
79710;SDS011;69465;51.630;6.570;2023-06-10T01:40:32;12.40;;;11.10;;
79710;SDS011;69465;51.630;6.570;2023-06-10T01:43:00;11.67;;;10.07;;
79710;SDS011;69465;51.630;6.570;2023-06-10T01:45:26;12.70;;;10.63;;
79710;SDS011;69465;51.630;6.570;2023-06-10T01:47:53;12.03;;;10.73;;
79710;SDS011;69465;51.630;6.570;2023-06-10T01:50:20;11.93;;;10.73;;
79710;SDS011;69465;51.630;6.570;2023-06-10T01:52:46;13.23;;;10.53;;
79710;SDS011;69465;51.630;6.570;2023-06-10T01:55:13;12.60;;;10.30;;
79710;SDS011;69465;51.630;6.570;2023-06-10T01:57:39;11.63;;;10.47;;
79710;SDS011;69465;51.630;6.570;2023-06-10T02:00:06;11.27;;;10.10;;
79710;SDS011;69465;51.630;6.570;2023-06-10T02:02:33;12.20;;;10.90;;
79710;SDS011;69465;51.630;6.570;2023-06-10T02:05:00;11.83;;;10.60;;
79710;SDS011;69465;51.630;6.570;2023-06-10T02:07:27;11.10;;;10.00;;
79710;SDS011;69465;51.630;6.570;2023-06-10T02:09:54;11.40;;;10.30;;
79710;SDS011;69465;51.630;6.570;2023-06-10T02:12:21;13.53;;;10.70;;
79710;SDS011;69465;51.630;6.570;2023-06-10T02:14:47;11.20;;;10.10;;
79710;SDS011;69465;51.630;6.570;2023-06-10T02:17:14;12.13;;;10.20;;
79710;SDS011;69465;51.630;6.570;2023-06-10T02:19:41;12.33;;;9.87;;
79710;SDS011;69465;51.630;6.570;2023-06-10T02:22:08;10.53;;;9.47;;
79710;SDS011;69465;51.630;6.570;2023-06-10T02:24:36;12.47;;;10.83;;
79710;SDS011;69465;51.630;6.570;2023-06-10T02:27:03;14.10;;;9.90;;
79710;SDS011;69465;51.630;6.570;2023-06-10T02:29:31;11.57;;;10.37;;
79710;SDS011;69465;51.630;6.570;2023-06-10T02:31:59;11.80;;;10.47;;
79710;SDS011;69465;51.630;6.570;2023-06-10T02:34:26;11.37;;;10.27;;
79710;SDS011;69465;51.630;6.570;2023-06-10T02:36:53;11.10;;;10.10;;
79710;SDS011;69465;51.630;6.570;2023-06-10T02:39:40;11.20;;;9.70;;
79710;SDS011;69465;51.630;6.570;2023-06-10T02:42:07;12.13;;;10.07;;
79710;SDS011;69465;51.630;6.570;2023-06-10T02:44:34;11.60;;;10.40;;
79710;SDS011;69465;51.630;6.570;2023-06-10T02:47:01;11.30;;;10.17;;
79710;SDS011;69465;51.630;6.570;2023-06-10T02:49:28;11.63;;;10.23;;
79710;SDS011;69465;51.630;6.570;2023-06-10T02:51:55;11.53;;;9.20;;
79710;SDS011;69465;51.630;6.570;2023-06-10T02:54:22;12.47;;;10.00;;
79710;SDS011;69465;51.630;6.570;2023-06-10T02:56:49;10.37;;;9.30;;
79710;SDS011;69465;51.630;6.570;2023-06-10T02:59:16;11.23;;;9.53;;
79710;SDS011;69465;51.630;6.570;2023-06-10T03:01:44;12.50;;;9.67;;
79710;SDS011;69465;51.630;6.570;2023-06-10T03:04:11;12.07;;;9.60;;
79710;SDS011;69465;51.630;6.570;2023-06-10T03:06:38;10.40;;;9.40;;
79710;SDS011;69465;51.630;6.570;2023-06-10T03:09:07;12.47;;;10.00;;
79710;SDS011;69465;51.630;6.570;2023-06-10T03:11:34;11.30;;;10.00;;
79710;SDS011;69465;51.630;6.570;2023-06-10T03:14:00;10.67;;;9.57;;
79710;SDS011;69465;51.630;6.570;2023-06-10T03:16:27;11.97;;;9.30;;
79710;SDS011;69465;51.630;6.570;2023-06-10T03:18:54;13.03;;;9.90;;
79710;SDS011;69465;51.630;6.570;2023-06-10T03:21:21;10.53;;;9.37;;
79710;SDS011;69465;51.630;6.570;2023-06-10T03:23:48;12.00;;;9.50;;
79710;SDS011;69465;51.630;6.570;2023-06-10T03:26:14;16.33;;;10.07;;
79710;SDS011;69465;51.630;6.570;2023-06-10T03:28:41;10.97;;;9.27;;
79710;SDS011;69465;51.630;6.570;2023-06-10T03:31:08;11.63;;;9.23;;
79710;SDS011;69465;51.630;6.570;2023-06-10T03:33:35;14.27;;;9.47;;
79710;SDS011;69465;51.630;6.570;2023-06-10T03:36:01;10.17;;;9.07;;
79710;SDS011;69465;51.630;6.570;2023-06-10T03:38:28;12.70;;;8.73;;
79710;SDS011;69465;51.630;6.570;2023-06-10T03:40:55;10.17;;;8.83;;
79710;SDS011;69465;51.630;6.570;2023-06-10T03:43:21;11.33;;;9.27;;
79710;SDS011;69465;51.630;6.570;2023-06-10T03:45:48;10.77;;;8.97;;
79710;SDS011;69465;51.630;6.570;2023-06-10T03:48:15;9.60;;;8.60;;
79710;SDS011;69465;51.630;6.570;2023-06-10T03:50:42;11.50;;;8.93;;
79710;SDS011;69465;51.630;6.570;2023-06-10T03:53:08;11.87;;;9.30;;
79710;SDS011;69465;51.630;6.570;2023-06-10T03:55:35;11.03;;;8.70;;
79710;SDS011;69465;51.630;6.570;2023-06-10T03:58:02;9.40;;;8.40;;
79710;SDS011;69465;51.630;6.570;2023-06-10T04:00:28;10.23;;;8.50;;
79710;SDS011;69465;51.630;6.570;2023-06-10T04:02:55;10.40;;;8.43;;
79710;SDS011;69465;51.630;6.570;2023-06-10T04:05:21;11.30;;;8.33;;
79710;SDS011;69465;51.630;6.570;2023-06-10T04:07:48;9.33;;;8.40;;
79710;SDS011;69465;51.630;6.570;2023-06-10T04:10:16;10.97;;;8.50;;
79710;SDS011;69465;51.630;6.570;2023-06-10T04:12:43;9.70;;;8.37;;
79710;SDS011;69465;51.630;6.570;2023-06-10T04:15:10;9.03;;;8.03;;
79710;SDS011;69465;51.630;6.570;2023-06-10T04:17:38;11.43;;;8.60;;
79710;SDS011;69465;51.630;6.570;2023-06-10T04:20:05;10.80;;;8.43;;
79710;SDS011;69465;51.630;6.570;2023-06-10T04:22:32;10.37;;;8.30;;
79710;SDS011;69465;51.630;6.570;2023-06-10T04:24:59;9.30;;;8.07;;
79710;SDS011;69465;51.630;6.570;2023-06-10T04:27:26;12.80;;;8.57;;
79710;SDS011;69465;51.630;6.570;2023-06-10T04:29:52;9.93;;;7.83;;
79710;SDS011;69465;51.630;6.570;2023-06-10T04:32:19;11.77;;;8.60;;
79710;SDS011;69465;51.630;6.570;2023-06-10T04:34:46;8.83;;;7.87;;
79710;SDS011;69465;51.630;6.570;2023-06-10T04:37:13;9.30;;;7.90;;
79710;SDS011;69465;51.630;6.570;2023-06-10T04:39:39;9.40;;;7.97;;
79710;SDS011;69465;51.630;6.570;2023-06-10T04:42:06;10.63;;;8.10;;
79710;SDS011;69465;51.630;6.570;2023-06-10T04:44:33;9.57;;;7.90;;
79710;SDS011;69465;51.630;6.570;2023-06-10T04:47:00;9.87;;;7.80;;
79710;SDS011;69465;51.630;6.570;2023-06-10T04:49:27;9.53;;;7.27;;
79710;SDS011;69465;51.630;6.570;2023-06-10T04:51:53;9.60;;;7.90;;
79710;SDS011;69465;51.630;6.570;2023-06-10T04:54:20;10.43;;;7.40;;
79710;SDS011;69465;51.630;6.570;2023-06-10T04:56:46;8.83;;;7.63;;
79710;SDS011;69465;51.630;6.570;2023-06-10T04:59:13;9.10;;;7.63;;
79710;SDS011;69465;51.630;6.570;2023-06-10T05:01:40;9.50;;;7.40;;
79710;SDS011;69465;51.630;6.570;2023-06-10T05:04:07;9.17;;;7.10;;
79710;SDS011;69465;51.630;6.570;2023-06-10T05:06:34;8.30;;;7.40;;
79710;SDS011;69465;51.630;6.570;2023-06-10T05:09:00;9.53;;;6.67;;
79710;SDS011;69465;51.630;6.570;2023-06-10T05:11:27;8.27;;;7.20;;
79710;SDS011;69465;51.630;6.570;2023-06-10T05:13:54;10.37;;;6.90;;
79710;SDS011;69465;51.630;6.570;2023-06-10T05:16:21;10.93;;;7.37;;
79710;SDS011;69465;51.630;6.570;2023-06-10T05:18:47;7.70;;;6.30;;
79710;SDS011;69465;51.630;6.570;2023-06-10T05:21:14;7.27;;;6.57;;
79710;SDS011;69465;51.630;6.570;2023-06-10T05:23:41;10.23;;;6.77;;
79710;SDS011;69465;51.630;6.570;2023-06-10T05:26:07;7.17;;;6.30;;
79710;SDS011;69465;51.630;6.570;2023-06-10T05:28:34;7.20;;;6.40;;
79710;SDS011;69465;51.630;6.570;2023-06-10T05:31:00;7.07;;;6.40;;
79710;SDS011;69465;51.630;6.570;2023-06-10T05:33:27;6.93;;;6.13;;
79710;SDS011;69465;51.630;6.570;2023-06-10T05:35:53;6.70;;;6.10;;
79710;SDS011;69465;51.630;6.570;2023-06-10T05:38:20;7.27;;;6.57;;
79710;SDS011;69465;51.630;6.570;2023-06-10T05:40:47;9.00;;;6.43;;
79710;SDS011;69465;51.630;6.570;2023-06-10T05:43:13;7.57;;;6.10;;
79710;SDS011;69465;51.630;6.570;2023-06-10T05:45:40;10.67;;;6.20;;
79710;SDS011;69465;51.630;6.570;2023-06-10T05:48:07;8.10;;;5.80;;
79710;SDS011;69465;51.630;6.570;2023-06-10T05:50:33;7.87;;;5.33;;
79710;SDS011;69465;51.630;6.570;2023-06-10T05:53:00;8.80;;;6.37;;
79710;SDS011;69465;51.630;6.570;2023-06-10T05:55:27;8.40;;;5.83;;
79710;SDS011;69465;51.630;6.570;2023-06-10T05:57:59;10.23;;;6.43;;
79710;SDS011;69465;51.630;6.570;2023-06-10T06:00:26;8.47;;;5.70;;
79710;SDS011;69465;51.630;6.570;2023-06-10T06:02:53;8.23;;;5.60;;
79710;SDS011;69465;51.630;6.570;2023-06-10T06:05:20;7.33;;;5.73;;
79710;SDS011;69465;51.630;6.570;2023-06-10T06:07:47;8.07;;;5.50;;
79710;SDS011;69465;51.630;6.570;2023-06-10T06:10:16;5.80;;;5.20;;
79710;SDS011;69465;51.630;6.570;2023-06-10T06:12:43;9.23;;;6.37;;
79710;SDS011;69465;51.630;6.570;2023-06-10T06:15:11;9.23;;;5.40;;
79710;SDS011;69465;51.630;6.570;2023-06-10T06:17:38;8.50;;;5.87;;
79710;SDS011;69465;51.630;6.570;2023-06-10T06:20:05;10.07;;;5.90;;
79710;SDS011;69465;51.630;6.570;2023-06-10T06:22:32;5.87;;;5.27;;
79710;SDS011;69465;51.630;6.570;2023-06-10T06:24:59;6.80;;;5.50;;
79710;SDS011;69465;51.630;6.570;2023-06-10T06:27:25;7.63;;;5.63;;
79710;SDS011;69465;51.630;6.570;2023-06-10T06:29:52;6.60;;;5.23;;
79710;SDS011;69465;51.630;6.570;2023-06-10T06:32:19;7.17;;;4.87;;
79710;SDS011;69465;51.630;6.570;2023-06-10T06:34:46;5.67;;;5.17;;
79710;SDS011;69465;51.630;6.570;2023-06-10T06:37:13;5.97;;;5.37;;
79710;SDS011;69465;51.630;6.570;2023-06-10T06:39:39;6.60;;;5.57;;
79710;SDS011;69465;51.630;6.570;2023-06-10T06:42:06;5.93;;;4.87;;
79710;SDS011;69465;51.630;6.570;2023-06-10T06:44:33;8.13;;;5.80;;
79710;SDS011;69465;51.630;6.570;2023-06-10T06:47:00;6.73;;;5.60;;
79710;SDS011;69465;51.630;6.570;2023-06-10T06:49:26;8.43;;;5.80;;
79710;SDS011;69465;51.630;6.570;2023-06-10T06:51:53;7.80;;;5.30;;
79710;SDS011;69465;51.630;6.570;2023-06-10T06:54:20;6.90;;;5.87;;
79710;SDS011;69465;51.630;6.570;2023-06-10T06:56:46;7.93;;;5.57;;
79710;SDS011;69465;51.630;6.570;2023-06-10T06:59:13;5.30;;;4.80;;
79710;SDS011;69465;51.630;6.570;2023-06-10T07:01:39;7.30;;;4.77;;
79710;SDS011;69465;51.630;6.570;2023-06-10T07:04:06;8.07;;;5.77;;
79710;SDS011;69465;51.630;6.570;2023-06-10T07:06:32;8.13;;;5.50;;
79710;SDS011;69465;51.630;6.570;2023-06-10T07:09:04;5.30;;;4.80;;
79710;SDS011;69465;51.630;6.570;2023-06-10T07:11:31;6.70;;;5.43;;
79710;SDS011;69465;51.630;6.570;2023-06-10T07:13:57;5.47;;;4.80;;
79710;SDS011;69465;51.630;6.570;2023-06-10T07:16:24;8.10;;;5.00;;
79710;SDS011;69465;51.630;6.570;2023-06-10T07:18:52;6.50;;;5.10;;
79710;SDS011;69465;51.630;6.570;2023-06-10T07:21:19;6.73;;;5.10;;
79710;SDS011;69465;51.630;6.570;2023-06-10T07:23:46;6.87;;;5.27;;
79710;SDS011;69465;51.630;6.570;2023-06-10T07:26:13;8.33;;;5.53;;
79710;SDS011;69465;51.630;6.570;2023-06-10T07:28:40;6.23;;;4.50;;
79710;SDS011;69465;51.630;6.570;2023-06-10T07:31:07;6.37;;;5.03;;
79710;SDS011;69465;51.630;6.570;2023-06-10T07:33:34;6.83;;;5.60;;
79710;SDS011;69465;51.630;6.570;2023-06-10T07:36:01;7.07;;;5.27;;
79710;SDS011;69465;51.630;6.570;2023-06-10T07:38:28;6.77;;;5.03;;
79710;SDS011;69465;51.630;6.570;2023-06-10T07:40:54;8.07;;;5.50;;
79710;SDS011;69465;51.630;6.570;2023-06-10T07:43:21;7.53;;;5.40;;
79710;SDS011;69465;51.630;6.570;2023-06-10T07:45:47;7.23;;;5.20;;
79710;SDS011;69465;51.630;6.570;2023-06-10T07:48:14;6.77;;;5.20;;
79710;SDS011;69465;51.630;6.570;2023-06-10T07:50:40;6.00;;;4.60;;
79710;SDS011;69465;51.630;6.570;2023-06-10T07:53:07;5.85;;;4.78;;
79710;SDS011;69465;51.630;6.570;2023-06-10T07:55:33;6.20;;;5.00;;
79710;SDS011;69465;51.630;6.570;2023-06-10T07:58:00;6.13;;;4.80;;
79710;SDS011;69465;51.630;6.570;2023-06-10T08:00:27;5.10;;;4.53;;
79710;SDS011;69465;51.630;6.570;2023-06-10T08:02:53;5.80;;;5.18;;
79710;SDS011;69465;51.630;6.570;2023-06-10T08:05:20;6.85;;;5.10;;
79710;SDS011;69465;51.630;6.570;2023-06-10T08:07:47;7.53;;;5.20;;
79710;SDS011;69465;51.630;6.570;2023-06-10T08:10:13;7.97;;;5.00;;
79710;SDS011;69465;51.630;6.570;2023-06-10T08:12:40;6.60;;;5.57;;
79710;SDS011;69465;51.630;6.570;2023-06-10T08:15:07;6.55;;;4.85;;
79710;SDS011;69465;51.630;6.570;2023-06-10T08:17:35;6.18;;;5.15;;
79710;SDS011;69465;51.630;6.570;2023-06-10T08:20:01;5.32;;;4.70;;
79710;SDS011;69465;51.630;6.570;2023-06-10T08:22:28;5.63;;;5.10;;
79710;SDS011;69465;51.630;6.570;2023-06-10T08:24:54;7.32;;;5.00;;
79710;SDS011;69465;51.630;6.570;2023-06-10T08:27:21;6.40;;;5.50;;
79710;SDS011;69465;51.630;6.570;2023-06-10T08:29:48;6.97;;;5.40;;
79710;SDS011;69465;51.630;6.570;2023-06-10T08:32:15;5.53;;;4.55;;
79710;SDS011;69465;51.630;6.570;2023-06-10T08:34:41;5.43;;;4.72;;
79710;SDS011;69465;51.630;6.570;2023-06-10T08:37:08;5.38;;;4.88;;
79710;SDS011;69465;51.630;6.570;2023-06-10T08:39:34;6.07;;;4.80;;
79710;SDS011;69465;51.630;6.570;2023-06-10T08:44:53;7.50;;;4.70;;
79710;SDS011;69465;51.630;6.570;2023-06-10T08:47:22;7.15;;;4.70;;
79710;SDS011;69465;51.630;6.570;2023-06-10T08:49:49;6.10;;;4.20;;
79710;SDS011;69465;51.630;6.570;2023-06-10T08:52:18;10.63;;;6.25;;
79710;SDS011;69465;51.630;6.570;2023-06-10T08:54:54;8.63;;;4.65;;
79710;SDS011;69465;51.630;6.570;2023-06-10T08:57:26;6.80;;;4.40;;
79710;SDS011;69465;51.630;6.570;2023-06-10T08:59:53;7.40;;;4.20;;
79710;SDS011;69465;51.630;6.570;2023-06-10T09:14:41;5.15;;;4.53;;
79710;SDS011;69465;51.630;6.570;2023-06-10T09:17:08;6.10;;;5.10;;
79710;SDS011;69465;51.630;6.570;2023-06-10T09:19:35;6.38;;;4.85;;
79710;SDS011;69465;51.630;6.570;2023-06-10T09:22:04;7.68;;;5.60;;
79710;SDS011;69465;51.630;6.570;2023-06-10T09:24:31;7.82;;;4.93;;
79710;SDS011;69465;51.630;6.570;2023-06-10T09:27:01;6.63;;;5.28;;
79710;SDS011;69465;51.630;6.570;2023-06-10T09:29:47;6.30;;;5.00;;
79710;SDS011;69465;51.630;6.570;2023-06-10T09:32:18;6.05;;;5.40;;
79710;SDS011;69465;51.630;6.570;2023-06-10T09:34:45;7.65;;;5.03;;
79710;SDS011;69465;51.630;6.570;2023-06-10T09:37:19;7.80;;;4.93;;
79710;SDS011;69465;51.630;6.570;2023-06-10T09:40:00;5.45;;;4.95;;
79710;SDS011;69465;51.630;6.570;2023-06-10T09:42:28;6.00;;;5.15;;
79710;SDS011;69465;51.630;6.570;2023-06-10T09:44:59;7.53;;;5.88;;
79710;SDS011;69465;51.630;6.570;2023-06-10T09:47:26;5.35;;;4.90;;
79710;SDS011;69465;51.630;6.570;2023-06-10T09:49:53;5.18;;;4.65;;
79710;SDS011;69465;51.630;6.570;2023-06-10T09:52:23;6.82;;;5.07;;
79710;SDS011;69465;51.630;6.570;2023-06-10T09:54:51;7.15;;;5.75;;
79710;SDS011;69465;51.630;6.570;2023-06-10T09:57:19;7.00;;;5.43;;
79710;SDS011;69465;51.630;6.570;2023-06-10T09:59:47;6.73;;;5.07;;
79710;SDS011;69465;51.630;6.570;2023-06-10T10:02:14;7.00;;;5.68;;
79710;SDS011;69465;51.630;6.570;2023-06-10T10:07:11;6.30;;;5.45;;
79710;SDS011;69465;51.630;6.570;2023-06-10T10:09:38;6.60;;;6.00;;
79710;SDS011;69465;51.630;6.570;2023-06-10T10:12:07;6.00;;;5.40;;
79710;SDS011;69465;51.630;6.570;2023-06-10T10:14:36;8.52;;;5.60;;
79710;SDS011;69465;51.630;6.570;2023-06-10T10:17:09;7.43;;;5.80;;
79710;SDS011;69465;51.630;6.570;2023-06-10T10:19:42;6.90;;;5.65;;
79710;SDS011;69465;51.630;6.570;2023-06-10T10:22:24;7.50;;;6.10;;
79710;SDS011;69465;51.630;6.570;2023-06-10T10:24:53;6.65;;;5.88;;
79710;SDS011;69465;51.630;6.570;2023-06-10T10:27:29;6.57;;;5.55;;
79710;SDS011;69465;51.630;6.570;2023-06-10T10:30:02;6.22;;;5.63;;
79710;SDS011;69465;51.630;6.570;2023-06-10T10:32:42;6.47;;;5.88;;
79710;SDS011;69465;51.630;6.570;2023-06-10T10:35:17;7.38;;;5.70;;
79710;SDS011;69465;51.630;6.570;2023-06-10T10:37:47;6.95;;;5.65;;
79710;SDS011;69465;51.630;6.570;2023-06-10T10:40:14;7.13;;;6.03;;
79710;SDS011;69465;51.630;6.570;2023-06-10T10:42:41;6.55;;;5.95;;
79710;SDS011;69465;51.630;6.570;2023-06-10T10:45:09;7.68;;;6.28;;
79710;SDS011;69465;51.630;6.570;2023-06-10T10:47:36;7.88;;;5.47;;
79710;SDS011;69465;51.630;6.570;2023-06-10T10:50:12;8.00;;;5.75;;
79710;SDS011;69465;51.630;6.570;2023-06-10T10:55:25;6.32;;;5.63;;
79710;SDS011;69465;51.630;6.570;2023-06-10T10:57:56;7.18;;;5.72;;
79710;SDS011;69465;51.630;6.570;2023-06-10T11:00:27;9.95;;;6.13;;
79710;SDS011;69465;51.630;6.570;2023-06-10T11:02:57;6.07;;;5.47;;
79710;SDS011;69465;51.630;6.570;2023-06-10T11:05:47;6.00;;;5.50;;
79710;SDS011;69465;51.630;6.570;2023-06-10T11:08:45;6.40;;;5.80;;
79710;SDS011;69465;51.630;6.570;2023-06-10T11:11:17;6.93;;;5.60;;
79710;SDS011;69465;51.630;6.570;2023-06-10T11:14:05;7.10;;;5.87;;
79710;SDS011;69465;51.630;6.570;2023-06-10T11:16:42;6.60;;;6.00;;
79710;SDS011;69465;51.630;6.570;2023-06-10T11:19:09;6.37;;;5.77;;
79710;SDS011;69465;51.630;6.570;2023-06-10T11:22:05;6.57;;;5.93;;
79710;SDS011;69465;51.630;6.570;2023-06-10T11:24:34;7.00;;;6.40;;
79710;SDS011;69465;51.630;6.570;2023-06-10T11:29:57;6.87;;;6.17;;
79710;SDS011;69465;51.630;6.570;2023-06-10T11:32:26;7.40;;;6.70;;
79710;SDS011;69465;51.630;6.570;2023-06-10T11:34:57;6.50;;;5.63;;
79710;SDS011;69465;51.630;6.570;2023-06-10T11:37:23;8.20;;;6.20;;
79710;SDS011;69465;51.630;6.570;2023-06-10T11:39:53;8.30;;;6.20;;
79710;SDS011;69465;51.630;6.570;2023-06-10T11:42:21;6.90;;;5.90;;
79710;SDS011;69465;51.630;6.570;2023-06-10T11:44:52;7.63;;;6.67;;
79710;SDS011;69465;51.630;6.570;2023-06-10T11:47:20;7.30;;;6.37;;
79710;SDS011;69465;51.630;6.570;2023-06-10T11:49:55;7.93;;;6.13;;
79710;SDS011;69465;51.630;6.570;2023-06-10T11:52:26;6.80;;;6.10;;
79710;SDS011;69465;51.630;6.570;2023-06-10T11:54:54;8.10;;;6.13;;
79710;SDS011;69465;51.630;6.570;2023-06-10T11:57:21;7.13;;;6.43;;
79710;SDS011;69465;51.630;6.570;2023-06-10T11:59:48;6.50;;;5.90;;
79710;SDS011;69465;51.630;6.570;2023-06-10T12:02:15;8.00;;;6.63;;
79710;SDS011;69465;51.630;6.570;2023-06-10T12:04:42;7.70;;;6.27;;
79710;SDS011;69465;51.630;6.570;2023-06-10T12:07:09;6.73;;;6.00;;
79710;SDS011;69465;51.630;6.570;2023-06-10T12:09:43;6.57;;;5.83;;
79710;SDS011;69465;51.630;6.570;2023-06-10T12:12:10;7.77;;;6.40;;
79710;SDS011;69465;51.630;6.570;2023-06-10T12:14:50;6.83;;;6.20;;
79710;SDS011;69465;51.630;6.570;2023-06-10T12:17:22;7.57;;;6.73;;
79710;SDS011;69465;51.630;6.570;2023-06-10T12:19:50;7.13;;;6.43;;
79710;SDS011;69465;51.630;6.570;2023-06-10T12:22:17;6.77;;;6.17;;
79710;SDS011;69465;51.630;6.570;2023-06-10T12:24:44;7.17;;;6.47;;
79710;SDS011;69465;51.630;6.570;2023-06-10T12:27:23;6.50;;;5.90;;
79710;SDS011;69465;51.630;6.570;2023-06-10T12:29:51;7.93;;;6.80;;
79710;SDS011;69465;51.630;6.570;2023-06-10T12:32:18;7.93;;;6.27;;
79710;SDS011;69465;51.630;6.570;2023-06-10T12:34:45;7.20;;;6.50;;
79710;SDS011;69465;51.630;6.570;2023-06-10T12:37:12;7.00;;;6.27;;
79710;SDS011;69465;51.630;6.570;2023-06-10T12:39:39;7.63;;;5.93;;
79710;SDS011;69465;51.630;6.570;2023-06-10T12:42:06;9.67;;;6.77;;
79710;SDS011;69465;51.630;6.570;2023-06-10T12:44:35;7.00;;;5.90;;
79710;SDS011;69465;51.630;6.570;2023-06-10T12:47:09;7.00;;;6.30;;
79710;SDS011;69465;51.630;6.570;2023-06-10T12:49:36;7.05;;;6.40;;
79710;SDS011;69465;51.630;6.570;2023-06-10T12:52:03;7.30;;;5.97;;
79710;SDS011;69465;51.630;6.570;2023-06-10T12:54:30;7.37;;;6.53;;
79710;SDS011;69465;51.630;6.570;2023-06-10T12:56:57;7.33;;;6.50;;
79710;SDS011;69465;51.630;6.570;2023-06-10T12:59:23;7.13;;;6.37;;
79710;SDS011;69465;51.630;6.570;2023-06-10T13:01:53;8.63;;;6.67;;
79710;SDS011;69465;51.630;6.570;2023-06-10T13:04:20;7.17;;;6.10;;
79710;SDS011;69465;51.630;6.570;2023-06-10T13:06:47;7.77;;;6.43;;
79710;SDS011;69465;51.630;6.570;2023-06-10T13:09:14;7.57;;;6.17;;
79710;SDS011;69465;51.630;6.570;2023-06-10T13:11:41;6.87;;;5.57;;
79710;SDS011;69465;51.630;6.570;2023-06-10T13:14:09;7.37;;;6.67;;
79710;SDS011;69465;51.630;6.570;2023-06-10T13:16:36;6.50;;;5.80;;
79710;SDS011;69465;51.630;6.570;2023-06-10T13:19:05;10.83;;;6.63;;
79710;SDS011;69465;51.630;6.570;2023-06-10T13:21:32;7.10;;;6.30;;
79710;SDS011;69465;51.630;6.570;2023-06-10T13:24:00;8.00;;;6.17;;
79710;SDS011;69465;51.630;6.570;2023-06-10T13:26:26;6.37;;;5.77;;
79710;SDS011;69465;51.630;6.570;2023-06-10T13:28:53;7.47;;;6.10;;
79710;SDS011;69465;51.630;6.570;2023-06-10T13:31:20;6.40;;;5.80;;
79710;SDS011;69465;51.630;6.570;2023-06-10T13:33:46;6.70;;;6.10;;
79710;SDS011;69465;51.630;6.570;2023-06-10T13:36:13;6.80;;;6.20;;
79710;SDS011;69465;51.630;6.570;2023-06-10T13:38:40;6.70;;;6.00;;
79710;SDS011;69465;51.630;6.570;2023-06-10T13:41:07;7.20;;;5.70;;
79710;SDS011;69465;51.630;6.570;2023-06-10T13:43:33;8.73;;;6.10;;
79710;SDS011;69465;51.630;6.570;2023-06-10T13:46:00;7.20;;;6.13;;
79710;SDS011;69465;51.630;6.570;2023-06-10T13:48:26;7.87;;;6.37;;
79710;SDS011;69465;51.630;6.570;2023-06-10T13:50:53;6.80;;;6.10;;
79710;SDS011;69465;51.630;6.570;2023-06-10T13:53:20;7.13;;;6.20;;
79710;SDS011;69465;51.630;6.570;2023-06-10T13:55:46;8.77;;;6.30;;
79710;SDS011;69465;51.630;6.570;2023-06-10T13:58:13;8.10;;;5.83;;
79710;SDS011;69465;51.630;6.570;2023-06-10T14:00:40;6.87;;;6.17;;
79710;SDS011;69465;51.630;6.570;2023-06-10T14:03:07;9.17;;;6.17;;
79710;SDS011;69465;51.630;6.570;2023-06-10T14:05:33;7.73;;;6.73;;
79710;SDS011;69465;51.630;6.570;2023-06-10T14:08:00;6.67;;;6.00;;
79710;SDS011;69465;51.630;6.570;2023-06-10T14:10:27;7.00;;;6.30;;
79710;SDS011;69465;51.630;6.570;2023-06-10T14:12:53;6.10;;;5.50;;
79710;SDS011;69465;51.630;6.570;2023-06-10T14:15:20;7.00;;;6.30;;
79710;SDS011;69465;51.630;6.570;2023-06-10T14:17:46;7.50;;;6.10;;
79710;SDS011;69465;51.630;6.570;2023-06-10T14:20:13;8.87;;;6.07;;
79710;SDS011;69465;51.630;6.570;2023-06-10T14:22:40;7.90;;;6.50;;
79710;SDS011;69465;51.630;6.570;2023-06-10T14:25:07;8.63;;;6.17;;
79710;SDS011;69465;51.630;6.570;2023-06-10T14:27:35;8.00;;;6.10;;
79710;SDS011;69465;51.630;6.570;2023-06-10T14:30:02;8.43;;;6.57;;
79710;SDS011;69465;51.630;6.570;2023-06-10T14:32:29;6.13;;;5.53;;
79710;SDS011;69465;51.630;6.570;2023-06-10T14:34:55;7.90;;;6.20;;
79710;SDS011;69465;51.630;6.570;2023-06-10T14:37:22;6.50;;;5.90;;
79710;SDS011;69465;51.630;6.570;2023-06-10T14:39:48;6.10;;;5.53;;
79710;SDS011;69465;51.630;6.570;2023-06-10T14:42:15;7.10;;;6.10;;
79710;SDS011;69465;51.630;6.570;2023-06-10T14:44:41;6.50;;;5.93;;
79710;SDS011;69465;51.630;6.570;2023-06-10T14:47:08;7.20;;;6.10;;
79710;SDS011;69465;51.630;6.570;2023-06-10T14:49:35;7.17;;;5.97;;
79710;SDS011;69465;51.630;6.570;2023-06-10T14:52:01;7.60;;;5.87;;
79710;SDS011;69465;51.630;6.570;2023-06-10T14:54:28;7.03;;;6.40;;
79710;SDS011;69465;51.630;6.570;2023-06-10T14:56:54;7.40;;;6.50;;
79710;SDS011;69465;51.630;6.570;2023-06-10T14:59:21;7.73;;;6.20;;
79710;SDS011;69465;51.630;6.570;2023-06-10T15:01:48;6.60;;;6.00;;
79710;SDS011;69465;51.630;6.570;2023-06-10T15:04:15;6.87;;;6.23;;
79710;SDS011;69465;51.630;6.570;2023-06-10T15:06:42;8.40;;;6.67;;
79710;SDS011;69465;51.630;6.570;2023-06-10T15:09:09;7.93;;;6.27;;
79710;SDS011;69465;51.630;6.570;2023-06-10T15:11:36;8.17;;;6.77;;